Thunderstorms From: 25-05-2018 15:00 Until: 26-05-2018 15:00 warning for: Thunderstorms Level: Yellow info button

Although rather usual in this region, locally or potentially dangerous phenomena are expected. (such as local winds, summer thunderstorms, rising streams or high waves) Be aware and pay attention to the latest weather updates, especially if you carry out activities exposed to weather or close to a stream or shoreline. 


Meteo18 Weather Cam more information Meteo18 Weather Cam


warning for Thunderstorms more information blitzortung!


Rain radar more information rain snow radar


Visit our other weather sites:

Template documentation
and downloads

And another site



Weather Underground History page Text

Daily Summary for February 18, 2016 Units:  Metric    English   Both
« Previous Day
Next Day »
Daily Weekly Monthly Yearly Custom
  High: Low: Average:
Temperature: -17.8 °C -20.2 °C -17.8 °C
Dew Point: -17.8 °C -20.6 °C -18.2 °C
Humidity: Humidity % 85 % 95 %
Wind Speed: 0 km/h 0 km/h 0.2 km/h
Wind Gust: 0 km/h - -
Wind:- - ESE
Pressure: 0 hPa 34293.4 hPa -
Precipitation: 33.02 mm    
Historical Graphs
 
 
Tabular Data for February 18, 2016
Time Temperature Dew Point Pressure Wind Wind Speed Wind Gust Humidity Rainfall Rate (Hourly)
-17.8 °C -17.8 °C 0 hPa Calm     Humidity % 0 mm
00:02 -19.7 °C -20.1 °C 34347.6 hPa Calm     95 % 0 mm
00:07 -19.7 °C -20.1 °C 34347.6 hPa Calm     95 % 0 mm
00:12 -19.7 °C -20 °C 34347.6 hPa Calm     96 % 0 mm
00:17 -19.7 °C -20.1 °C 34347.6 hPa Calm     95 % 0 mm
00:22 -19.8 °C -20.2 °C 34347.6 hPa Calm     95 % 0 mm
00:32 -19.9 °C -20.3 °C 34347.6 hPa Calm     95 % 0 mm
00:37 -20.1 °C -20.4 °C 34347.6 hPa Calm     95 % 0 mm
00:42 -20.1 °C -20.5 °C 34347.6 hPa Calm     95 % 0 mm
00:47 -20.2 °C -20.6 °C 34347.6 hPa Calm     95 % 0 mm
00:52 -20.2 °C -20.6 °C 34347.6 hPa Calm     95 % 0 mm
00:57 -20.1 °C -20.3 °C 34347.6 hPa Calm     96 % 0 mm
01:02 -19.8 °C -20.1 °C 34347.6 hPa Calm     97 % 0 mm
01:07 -19.7 °C -19.9 °C 34347.6 hPa Calm     97 % 0 mm
01:22 -19.7 °C -19.9 °C 34347.6 hPa Calm     97 % 0 mm
01:27 -19.6 °C -19.8 °C 34337.4 hPa Calm     97 % 0 mm
01:32 -19.5 °C -19.7 °C 34337.4 hPa Calm     97 % 0 mm
01:37 -19.4 °C -19.7 °C 34337.4 hPa Calm     97 % 0 mm
01:47 -19.4 °C -19.7 °C 34337.4 hPa Calm     97 % 0 mm
01:52 -19.4 °C -19.6 °C 34337.4 hPa Calm     97 % 0 mm
01:57 -19.5 °C -19.8 °C 34337.4 hPa Calm     96 % 0 mm
02:02 -19.6 °C -19.8 °C 34337.4 hPa Calm     96 % 0 mm
02:12 -19.6 °C -19.9 °C 34337.4 hPa Calm     96 % 0 mm
02:17 -19.6 °C -19.8 °C 34337.4 hPa Calm     96 % 0 mm
02:22 -19.6 °C -19.8 °C 34337.4 hPa Calm     97 % 0 mm
02:27 -19.5 °C -19.7 °C 34337.4 hPa Calm     97 % 0 mm
02:32 -19.5 °C -19.7 °C 34337.4 hPa Calm     97 % 0 mm
02:37 -19.5 °C -19.7 °C 34337.4 hPa Calm     97 % 0 mm
02:42 -19.5 °C -19.7 °C 34337.4 hPa Calm     97 % 0 mm
02:47 -19.5 °C -19.7 °C 34327.3 hPa Calm     97 % 0 mm
02:57 -19.4 °C -19.7 °C 34327.3 hPa Calm     97 % 0 mm
03:02 -19.5 °C -19.8 °C 34327.3 hPa Calm     96 % 0 mm
03:07 -19.6 °C -19.8 °C 34327.3 hPa Calm     96 % 0 mm
03:12 -19.6 °C -19.9 °C 34327.3 hPa Calm     96 % 0 mm
03:17 -19.6 °C -19.9 °C 34327.3 hPa Calm     96 % 0 mm
03:22 -19.6 °C -19.9 °C 34327.3 hPa Calm     96 % 0 mm
03:27 -19.7 °C -19.9 °C 34327.3 hPa Calm     96 % 0 mm
03:37 -19.7 °C -20 °C 34313.7 hPa Calm     96 % 0 mm
03:42 -19.7 °C -20 °C 34313.7 hPa Calm     96 % 0 mm
03:47 -19.7 °C -20 °C 34313.7 hPa Calm     96 % 0 mm
03:57 -19.8 °C -20.1 °C 34313.7 hPa Calm     96 % 0 mm
04:02 -19.8 °C -20.1 °C 34313.7 hPa Calm     96 % 0 mm
04:07 -19.7 °C -19.9 °C 34313.7 hPa Calm     96 % 0 mm
04:17 -19.7 °C -19.9 °C 34313.7 hPa Calm     96 % 0 mm
04:22 -19.7 °C -19.9 °C 34313.7 hPa Calm     96 % 0 mm
04:27 -19.6 °C -19.9 °C 34313.7 hPa Calm     96 % 0 mm
04:32 -19.6 °C -19.8 °C 34313.7 hPa Calm     97 % 0 mm
04:42 -19.6 °C -19.8 °C 34303.6 hPa Calm     97 % 0 mm
04:47 -19.6 °C -19.8 °C 34303.6 hPa Calm     96 % 0 mm
04:52 -19.6 °C -19.8 °C 34303.6 hPa Calm     96 % 0 mm
04:57 -19.6 °C -19.9 °C 34303.6 hPa Calm     96 % 0 mm
05:02 -19.6 °C -19.8 °C 34303.6 hPa Calm     97 % 0 mm
05:12 -19.6 °C -19.8 °C 34303.6 hPa Calm     97 % 0 mm
05:17 -19.5 °C -19.7 °C 34303.6 hPa Calm     97 % 0 mm
05:22 -19.5 °C -19.7 °C 34293.4 hPa Calm     97 % 0 mm
05:27 -19.5 °C -19.7 °C 34293.4 hPa Calm     97 % 0 mm
05:32 -19.4 °C -19.7 °C 34303.6 hPa Calm     97 % 0 mm
05:42 -19.4 °C -19.6 °C 34303.6 hPa Calm     97 % 0 mm
05:47 -19.4 °C -19.6 °C 34303.6 hPa Calm     97 % 0 mm
05:52 -19.3 °C -19.6 °C 34303.6 hPa Calm     97 % 0 mm
06:02 -19.3 °C -19.6 °C 34303.6 hPa Calm     97 % 0 mm
06:12 -19.3 °C -19.6 °C 34303.6 hPa Calm     97 % 0 mm
06:17 -19.3 °C -19.5 °C 34303.6 hPa Calm     97 % 0 mm
06:27 -19.3 °C -19.5 °C 34313.7 hPa Calm     97 % 0 mm
06:32 -19.2 °C -19.4 °C 34303.6 hPa Calm     97 % 0 mm
06:37 -19.2 °C -19.4 °C 34303.6 hPa Calm     97 % 0 mm
06:47 -19.2 °C -19.4 °C 34313.7 hPa Calm     97 % 0 mm
06:57 -19.1 °C -19.3 °C 34303.6 hPa Calm     97 % 0 mm
07:02 -19.1 °C -19.3 °C 34313.7 hPa Calm     97 % 0 mm
07:07 -19.1 °C -19.3 °C 34313.7 hPa Calm     97 % 0 mm
07:12 -19.1 °C -19.3 °C 34303.6 hPa Calm     97 % 0 mm
07:17 -19 °C -19.2 °C 34303.6 hPa Calm     97 % 0 mm
07:22 -19 °C -19.2 °C 34313.7 hPa Calm     97 % 0 mm
07:27 -19 °C -19.2 °C 34303.6 hPa Calm     97 % 0 mm
07:37 -18.9 °C -19.2 °C 34313.7 hPa Calm     97 % 0 mm
07:42 -18.9 °C -19.2 °C 34313.7 hPa Calm     97 % 0 mm
07:47 -18.9 °C -19.2 °C 34313.7 hPa Calm     97 % 0 mm
07:52 -18.9 °C -19.3 °C 34313.7 hPa Calm     96 % 0 mm
07:57 -18.9 °C -19.2 °C 34313.7 hPa Calm     97 % 0 mm
08:02 -18.9 °C -19.3 °C 34313.7 hPa Calm     96 % 0 mm
08:07 -18.9 °C -19.2 °C 34313.7 hPa Calm     97 % 0 mm
08:12 -18.9 °C -19.2 °C 34313.7 hPa Calm     97 % 0 mm
08:22 -18.9 °C -19.1 °C 34327.3 hPa Calm     97 % 0 mm
08:32 -18.8 °C -19.1 °C 34337.4 hPa Calm     97 % 0 mm
08:42 -18.8 °C -19 °C 34337.4 hPa Calm     97 % 0 mm
08:57 -18.7 °C -18.9 °C 34337.4 hPa Calm     97 % 0 mm
09:02 -18.6 °C -18.8 °C 34347.6 hPa Calm     97 % 0 mm
09:12 -18.5 °C -18.7 °C 34347.6 hPa Calm     97 % 0 mm
09:17 -18.4 °C -18.7 °C 34347.6 hPa Calm     97 % 0 mm
09:22 -18.4 °C -18.8 °C 34347.6 hPa Calm     96 % 0 mm
09:32 -18.3 °C -18.7 °C 34347.6 hPa Calm     96 % 0 mm
09:37 -18.3 °C -18.6 °C 34347.6 hPa Calm     96 % 0 mm
09:42 -18.3 °C -18.6 °C 34347.6 hPa Calm     96 % 0 mm
09:47 -18.3 °C -18.6 °C 34347.6 hPa Calm     96 % 0 mm
09:52 -18.2 °C -18.6 °C 34347.6 hPa Calm     96 % 0 mm
09:57 -18.2 °C -18.5 °C 34347.6 hPa Calm     96 % 0 mm
10:02 -18.1 °C -18.4 °C 34347.6 hPa Calm     96 % 0 mm
10:12 -17.9 °C -18.3 °C 34347.6 hPa Calm   2.6 km/h 95 % 0 mm
10:17 -17.9 °C -18.3 °C 34347.6 hPa Calm   2.6 km/h 94 % 0 mm
10:27 -17.7 °C -18.3 °C 34347.6 hPa Calm   2.6 km/h 93 % 0 mm
10:32 -17.7 °C -18.4 °C 34347.6 hPa Calm   2.6 km/h 91 % 0 mm
10:37 -17.7 °C -18.4 °C 34347.6 hPa Calm   2.6 km/h 91 % 0 mm
10:42 -17.7 °C -18.4 °C 34347.6 hPa Calm   2.6 km/h 91 % 0 mm
10:47 -17.6 °C -18.3 °C 34347.6 hPa Calm   2.6 km/h 91 % 0 mm
10:52 -17.5 °C -18.2 °C 34347.6 hPa Calm   2.6 km/h 91 % 0 mm
10:57 -17.4 °C -18.1 °C 34361.1 hPa Calm   2.6 km/h 91 % 0 mm
11:02 -17.2 °C -18.1 °C 34361.1 hPa Calm     90 % 0 mm
11:12 -16.9 °C -18 °C 34347.6 hPa Calm   2.6 km/h 87 % 0 mm
11:17 -16.8 °C -17.9 °C 34347.6 hPa Calm   2.6 km/h 87 % 0 mm
11:22 -16.7 °C -17.7 °C 34347.6 hPa Calm   2.6 km/h 87 % 0 mm
11:27 -16.6 °C -17.7 °C 34347.6 hPa Calm   2.6 km/h 86 % 0 mm
11:32 -16.6 °C -17.7 °C 34361.1 hPa Calm   2.6 km/h 86 % 0 mm
11:42 -16.6 °C -17.8 °C 34361.1 hPa Calm   2.6 km/h 86 % 0 mm
11:47 -16.6 °C -17.8 °C 34361.1 hPa Calm   2.6 km/h 85 % 0 mm
11:52 -16.6 °C -17.8 °C 34361.1 hPa Calm   2.6 km/h 85 % 0 mm
12:02 -16.6 °C -17.8 °C 34361.1 hPa Calm     85 % 0 mm
12:07 -16.6 °C -17.8 °C 34361.1 hPa Calm   7.7 km/h 85 % 0 mm
12:12 -16.6 °C -17.7 °C 34361.1 hPa Calm   7.7 km/h 86 % 0 mm
12:17 -16.6 °C -17.6 °C 34361.1 hPa Calm   7.7 km/h 88 % 0 mm
12:22 -16.6 °C -17.5 °C 34361.1 hPa Calm   7.7 km/h 89 % 0 mm
12:32 -16.7 °C -17.6 °C 34347.6 hPa Calm   5.1 km/h 90 % 0 mm
12:37 -16.7 °C -17.4 °C 34347.6 hPa NNW 2.6 km/h 7.7 km/h 91 % 0 mm
12:47 -16.8 °C -17.4 °C 34347.6 hPa Calm   7.7 km/h 92 % 0 mm
12:52 -16.8 °C -17.3 °C 34347.6 hPa Calm   5.1 km/h 93 % 0 mm
12:57 -16.8 °C -17.3 °C 34347.6 hPa Calm   2.6 km/h 93 % 0 mm
13:02 -16.8 °C -17.3 °C 34347.6 hPa Calm   5.1 km/h 93 % 0 mm
13:07 -16.7 °C -17.2 °C 34347.6 hPa Calm   5.1 km/h 94 % 0 mm
13:12 -16.7 °C -17.2 °C 34347.6 hPa Calm   5.1 km/h 94 % 0 mm
13:17 -16.6 °C -17.1 °C 34347.6 hPa Calm   2.6 km/h 94 % 0 mm
13:22 -16.6 °C -17.1 °C 34337.4 hPa Calm   2.6 km/h 94 % 7.62 mm
13:27 -16.6 °C -17.1 °C 34337.4 hPa Calm   2.6 km/h 94 % 7.62 mm
13:37 -16.6 °C -17.1 °C 34337.4 hPa Calm   5.1 km/h 94 % 7.62 mm
13:42 -16.6 °C -17.1 °C 34337.4 hPa Calm   7.7 km/h 94 % 7.62 mm
13:47 -16.6 °C -17.1 °C 34337.4 hPa Calm   7.7 km/h 94 % 12.7 mm
13:52 -16.6 °C -16.9 °C 34337.4 hPa Calm   7.7 km/h 95 % 12.7 mm
13:57 -16.6 °C -17.1 °C 34337.4 hPa Calm   5.1 km/h 94 % 12.7 mm
14:02 -16.6 °C -17.1 °C 34337.4 hPa Calm   5.1 km/h 94 % 12.7 mm
14:12 -16.6 °C -16.9 °C 34327.3 hPa WSW 2.6 km/h 2.6 km/h 95 % 12.7 mm
14:17 -16.6 °C -16.9 °C 34327.3 hPa NW 2.6 km/h 5.1 km/h 95 % 12.7 mm
14:22 -16.5 °C -16.8 °C 34327.3 hPa Calm   7.7 km/h 96 % 12.7 mm
14:27 -16.4 °C -16.8 °C 34327.3 hPa Calm   7.7 km/h 95 % 12.7 mm
14:32 -16.5 °C -16.9 °C 34327.3 hPa Calm   10.3 km/h 95 % 12.7 mm
14:37 -16.4 °C -16.8 °C 34327.3 hPa Calm   10.3 km/h 95 % 12.7 mm
14:42 -16.4 °C -16.8 °C 34327.3 hPa Calm   10.3 km/h 95 % 12.7 mm
14:47 -16.4 °C -16.8 °C 34327.3 hPa Calm   7.7 km/h 95 % 12.7 mm
14:52 -16.4 °C -16.8 °C 34327.3 hPa Calm   5.1 km/h 95 % 12.7 mm
14:57 -16.4 °C -16.8 °C 34337.4 hPa West 2.6 km/h 5.1 km/h 95 % 12.7 mm
15:07 -16.4 °C -16.8 °C 34337.4 hPa Calm   5.1 km/h 95 % 12.7 mm
15:12 -16.3 °C -16.7 °C 34327.3 hPa Calm   5.1 km/h 95 % 7.62 mm
15:17 -16.3 °C -16.7 °C 34337.4 hPa Calm   2.6 km/h 95 % 7.62 mm
15:22 -16.3 °C -16.7 °C 34337.4 hPa Calm   2.6 km/h 95 % 7.62 mm
15:27 -16.3 °C -16.7 °C 34337.4 hPa Calm   2.6 km/h 95 % 7.62 mm
15:32 -16.3 °C -16.7 °C 34327.3 hPa Calm   2.6 km/h 95 % 7.62 mm
15:42 -16.3 °C -16.7 °C 34337.4 hPa Calm   2.6 km/h 95 % 0 mm
15:47 -16.2 °C -16.6 °C 34347.6 hPa Calm   2.6 km/h 95 % 0 mm
15:52 -16.2 °C -16.6 °C 34347.6 hPa Calm   2.6 km/h 95 % 0 mm
15:57 -16.3 °C -16.7 °C 34347.6 hPa Calm   2.6 km/h 95 % 0 mm
16:02 -16.3 °C -16.7 °C 34347.6 hPa Calm   2.6 km/h 95 % 0 mm
16:07 -16.2 °C -16.6 °C 34347.6 hPa Calm   2.6 km/h 95 % 0 mm
16:12 -16.2 °C -16.6 °C 34347.6 hPa Calm   2.6 km/h 95 % 0 mm
16:27 -16.2 °C -16.6 °C 34361.1 hPa Calm   2.6 km/h 95 % 0 mm
16:32 -16.3 °C -16.7 °C 34361.1 hPa Calm   2.6 km/h 95 % 0 mm
16:37 -16.3 °C -16.7 °C 34361.1 hPa Calm   2.6 km/h 95 % 0 mm
16:47 -16.3 °C -16.7 °C 34361.1 hPa Calm   2.6 km/h 95 % 0 mm
16:52 -16.3 °C -16.7 °C 34361.1 hPa Calm   2.6 km/h 95 % 0 mm
16:57 -16.3 °C -16.7 °C 34361.1 hPa Calm   2.6 km/h 95 % 0 mm
17:02 -16.3 °C -16.7 °C 34371.3 hPa Calm   2.6 km/h 95 % 0 mm
17:12 -16.3 °C -16.7 °C 34371.3 hPa Calm   2.6 km/h 95 % 0 mm
17:22 -16.4 °C -16.8 °C 34371.3 hPa Calm   5.1 km/h 95 % 0 mm
17:27 -16.4 °C -16.7 °C 34371.3 hPa NE 2.6 km/h 5.1 km/h 96 % 0 mm
17:32 -16.4 °C -16.7 °C 34371.3 hPa NE 2.6 km/h 5.1 km/h 96 % 0 mm
17:37 -16.4 °C -16.8 °C 34384.8 hPa Calm   5.1 km/h 96 % 0 mm
17:42 -16.4 °C -16.8 °C 34384.8 hPa Calm   5.1 km/h 95 % 0 mm
17:52 -16.5 °C -16.9 °C 34384.8 hPa Calm   7.7 km/h 95 % 0 mm
17:57 -16.5 °C -16.9 °C 34384.8 hPa Calm   7.7 km/h 95 % 0 mm
18:02 -16.5 °C -16.9 °C 34384.8 hPa ENE 5.1 km/h 7.7 km/h 95 % 0 mm
18:12 -16.5 °C -16.9 °C 34384.8 hPa NE 2.6 km/h 7.7 km/h 95 % 0 mm
18:17 -16.5 °C -16.9 °C 34395 hPa Calm   7.7 km/h 95 % 0 mm
18:22 -16.5 °C -16.9 °C 34395 hPa Calm   5.1 km/h 95 % 7.62 mm
18:32 -16.6 °C -16.9 °C 34405.1 hPa Calm   5.1 km/h 95 % 7.62 mm
18:37 -16.6 °C -16.9 °C 34405.1 hPa Calm   5.1 km/h 95 % 7.62 mm
18:47 -16.6 °C -17 °C 34418.7 hPa Calm   5.1 km/h 95 % 7.62 mm
18:57 -16.6 °C -17 °C 34418.7 hPa ENE 2.6 km/h 7.7 km/h 95 % 7.62 mm
19:02 -16.6 °C -17 °C 34428.8 hPa Calm   7.7 km/h 95 % 7.62 mm
19:17 -16.7 °C -17.1 °C 34442.4 hPa Calm   10.3 km/h 95 % 0 mm
19:22 -16.7 °C -17.1 °C 34442.4 hPa ENE 2.6 km/h 5.1 km/h 95 % 0 mm
19:27 -16.8 °C -17.2 °C 34442.4 hPa NE 2.6 km/h 7.7 km/h 95 % 0 mm
19:32 -16.8 °C -17.2 °C 34442.4 hPa NE 2.6 km/h 12.9 km/h 95 % 7.62 mm
19:37 -16.9 °C -17.3 °C 34442.4 hPa NE 2.6 km/h 12.9 km/h 95 % 7.62 mm
19:47 -16.9 °C -17.3 °C 34442.4 hPa NE 2.6 km/h 10.3 km/h 95 % 7.62 mm
19:52 -17 °C -17.4 °C 34452.6 hPa Calm   10.3 km/h 95 % 7.62 mm
20:07 -17 °C -17.4 °C 34452.6 hPa Calm   7.7 km/h 95 % 7.62 mm
20:17 -17 °C -17.3 °C 34462.7 hPa NE 5.1 km/h 5.1 km/h 96 % 7.62 mm
20:22 -17 °C -17.3 °C 34462.7 hPa Calm   7.7 km/h 96 % 7.62 mm
20:27 -17.1 °C -17.4 °C 34462.7 hPa Calm   7.7 km/h 96 % 7.62 mm
20:32 -17.1 °C -17.4 °C 34462.7 hPa Calm   7.7 km/h 96 % 0 mm
20:37 -17.1 °C -17.4 °C 34462.7 hPa Calm   5.1 km/h 96 % 0 mm
20:42 -17.1 °C -17.4 °C 34462.7 hPa Calm     96 % 0 mm
20:52 -17 °C -17.3 °C 34476.3 hPa Calm   2.6 km/h 96 % 0 mm
20:57 -17 °C -17.3 °C 34476.3 hPa Calm   5.1 km/h 96 % 0 mm
21:02 -17 °C -17.3 °C 34486.4 hPa Calm   5.1 km/h 96 % 0 mm
21:07 -17 °C -17.3 °C 34486.4 hPa Calm   5.1 km/h 96 % 0 mm
21:12 -17 °C -17.3 °C 34486.4 hPa Calm   2.6 km/h 96 % 0 mm
21:17 -17 °C -17.3 °C 34486.4 hPa Calm   2.6 km/h 96 % 0 mm
21:22 -17 °C -17.3 °C 34496.6 hPa Calm   2.6 km/h 96 % 0 mm
21:27 -16.9 °C -17.3 °C 34496.6 hPa Calm   5.1 km/h 96 % 0 mm
21:32 -16.9 °C -17.2 °C 34496.6 hPa Calm   5.1 km/h 96 % 0 mm
21:37 -16.9 °C -17.2 °C 34496.6 hPa Calm   5.1 km/h 96 % 0 mm
21:47 -16.9 °C -17.2 °C 34496.6 hPa Calm   7.7 km/h 96 % 0 mm
21:52 -16.8 °C -17.2 °C 34496.6 hPa Calm   7.7 km/h 96 % 0 mm
21:57 -16.8 °C -17.2 °C 34510.1 hPa East 2.6 km/h 2.6 km/h 96 % 0 mm
22:02 -16.8 °C -17.2 °C 34510.1 hPa Calm   5.1 km/h 96 % 0 mm
22:07 -16.8 °C -17.2 °C 34510.1 hPa Calm   10.3 km/h 96 % 0 mm
22:12 -16.8 °C -17.2 °C 34510.1 hPa Calm   10.3 km/h 96 % 0 mm
22:22 -16.8 °C -17.1 °C 34520.3 hPa Calm   18.2 km/h 96 % 0 mm
22:27 -16.8 °C -17.1 °C 34520.3 hPa Calm   18.2 km/h 96 % 0 mm
22:32 -16.8 °C -17.1 °C 34520.3 hPa Calm   7.7 km/h 96 % 0 mm
22:37 -16.8 °C -17.1 °C 34520.3 hPa NE 2.6 km/h 5.1 km/h 96 % 0 mm
22:42 -16.8 °C -17.1 °C 34520.3 hPa Calm   7.7 km/h 96 % 0 mm
22:52 -16.8 °C -17.1 °C 34533.8 hPa Calm   7.7 km/h 96 % 0 mm
23:02 -16.7 °C -17.1 °C 34533.8 hPa Calm   5.1 km/h 96 % 0 mm
23:12 -16.7 °C -17.1 °C 34533.8 hPa Calm   2.6 km/h 96 % 0 mm
23:22 -16.7 °C -17 °C 34544 hPa Calm     96 % 0 mm
23:32 -16.7 °C -17 °C 34544 hPa Calm     96 % 0 mm
23:37 -16.7 °C -17.1 °C 34544 hPa Calm     96 % 0 mm
23:42 -16.7 °C -17.1 °C 34544 hPa Calm     96 % 0 mm
23:47 -16.8 °C -17.1 °C 34544 hPa Calm     96 % 0 mm
23:52 -16.8 °C -17.1 °C 34544 hPa Calm     96 % 0 mm
23:57 -16.8 °C -17.1 °C 34544 hPa Calm     96 % 0 mm
Meteo18
Compliments of Weather Underground - 4 mb

Script developed by  Jim McMurry - jmcmurry@mwt.net Adapted for the template by  Wim van der Kuil - Leuven-Template.eu

You find our weather info also at:

European Weather Network

Weather Underground

Equipment we use:

Weather-station
Davis Vue

Weather-program
Meteobridge

Weather-server
Raspberry PI 2 B+

Provider
1 and 1

Davis Vue

Meteobridge

Raspberry PI 2 B+

1 and 1